ADDS TAF Data INFO
IDs: Format: Raw Decoded Include METARs

Data at: 2010 UTC 22 Apr 2018

KTUS 221953Z 21004KT 10SM CLR 29/M11 A2995 RMK AO2 SLP103 T02891111

KTUS 221734Z 2218/2318 13007KT P6SM SCT120
  FM221900 20007KT P6SM SCT120
  FM222100 30008KT P6SM SCT120
  FM230400 23005KT P6SM FEW120
  FM230800 15006KT P6SM SKC